Time;durP1;ratioP1;P1;durP2;ratioP2;P2;SDS_P1;SDS_P2;PMS_P1;PMS_P2;Temp;Humidity;BMP_temperature;BMP_pressure;BME280_temperature;BME280_humidity;BME280_pressure;Samples;Min_cycle;Max_cycle;Signal;HPM_P1;HPM_P2
2021/10/08 00:00:03;;;;;;;;;;;;;;;20.04;nan;101103.75;5086061;28;19931;-46
2021/10/08 00:02:29;;;;;;;;;;;;;;;20.06;nan;101117.97;5075804;28;20040;-42
2021/10/08 00:04:54;;;;;;;;;;;;;;;;;;5073690;28;20386;-42
2021/10/08 00:07:19;;;;;;;;;;;;;;;20.04;nan;101125.34;5074704;28;19920;-45
2021/10/08 00:09:44;;;;;;;;;;;;;;;20.05;nan;101121.66;5073077;28;19961;-44
2021/10/08 00:12:10;;;;;;;;;;;;;;;;;;5071477;28;20354;-43
2021/10/08 00:14:35;;;;;;;;;;;;;;;20.02;nan;101109.25;5082949;28;19924;-43
2021/10/08 00:17:01;;;;;;;;;;;;;;;;;;5073104;28;20289;-44
2021/10/08 00:19:26;;;;;;;;;;;;;;;20.02;nan;101120.03;5068509;28;19941;-43
2021/10/08 00:21:52;;;;;;;;;;;;;;;20.02;nan;101113.78;5074144;28;19958;-45
2021/10/08 00:24:17;;;;;;;;;;;;;;;20.01;nan;101115.63;5060901;28;19921;-43
2021/10/08 00:26:42;;;;;;;;;;;;;;;;;;5084706;28;19946;-46
2021/10/08 00:29:08;;;;;;;;;;;;;;;;;;5084027;28;20278;-47
2021/10/08 00:31:33;;;;;;;;;;;;;;;20.02;nan;101124.59;5093330;28;19912;-45
2021/10/08 00:33:58;;;;;;;;;;;;;;;19.99;nan;101127.50;5088425;28;20377;-43
2021/10/08 00:36:24;;;;;;;;;;;;;;;19.98;nan;101126.63;5073376;28;20562;-42
2021/10/08 00:38:49;;;;;;;;;;;;;;;19.98;nan;101121.25;5086468;28;19915;-42
2021/10/08 00:41:14;;;;;;;;;;;;;;;;;;5073820;28;19926;-43
2021/10/08 00:43:40;;;;;;;;;;;;;;;;;;5075952;28;19985;-44
2021/10/08 00:46:05;;;;;;;;;;;;;;;19.96;nan;101110.56;5075047;28;20408;-43
2021/10/08 00:48:30;;;;;;;;;;;;;;;;;;5089993;28;19927;-44
2021/10/08 00:50:56;;;;;;;;;;;;;;;19.96;nan;101115.97;5068700;28;19924;-43
2021/10/08 00:53:21;;;;;;;;;;;;;;;19.95;nan;101116.06;5067140;28;19917;-45
2021/10/08 00:55:48;;;;;;;;;;;;;;;19.94;nan;101128.69;5054303;28;19968;-45
2021/10/08 00:58:14;;;;;;;;;;;;;;;19.93;nan;101110.78;5091646;28;20026;-44
2021/10/08 01:00:40;;;;;;;;;;;;;;;19.92;nan;101100.97;5087311;28;20003;-42
2021/10/08 01:03:06;;;;;;;;;;;;;;;19.93;nan;101108.09;5071738;28;20021;-41
2021/10/08 01:05:31;;;;;;;;;;;;;;;19.93;nan;101109.94;5070745;28;20394;-43
2021/10/08 01:07:57;;;;;;;;;;;;;;;19.92;nan;101114.47;5072269;28;19921;-42
2021/10/08 01:10:22;;;;;;;;;;;;;;;;;;5075777;28;19912;-42
2021/10/08 01:12:47;;;;;;;;;;;;;;;;;;5066744;28;19917;-45
2021/10/08 01:15:13;;;;;;;;;;;;;;;19.90;nan;101107.47;5071895;28;19958;-42
2021/10/08 01:17:38;;;;;;;;;;;;;;;;;;5087838;28;19995;-42
2021/10/08 01:20:07;;;;;;;;;;;;;;;19.90;nan;101091.28;5077395;28;19918;-42
2021/10/08 01:22:33;;;;;;;;;;;;;;;19.89;nan;101112.00;5081964;28;19917;-46
2021/10/08 01:24:58;;;;;;;;;;;;;;;19.89;nan;101114.69;5071667;28;20305;-43
2021/10/08 01:27:23;;;;;;;;;;;;;;;;;;5072231;28;19919;-44
2021/10/08 01:29:53;;;;;;;;;;;;;;;19.88;nan;101098.59;5074604;28;20374;-43
2021/10/08 01:32:19;;;;;;;;;;;;;;;19.88;nan;101106.69;5078481;28;19981;-46
2021/10/08 01:34:44;;;;;;;;;;;;;;;;;;5090967;28;20308;-42
2021/10/08 01:37:09;;;;;;;;;;;;;;;;;;5075883;28;20343;-42
2021/10/08 01:39:35;;;;;;;;;;;;;;;19.86;nan;101104.13;5070193;28;19916;-42
2021/10/08 01:42:00;;;;;;;;;;;;;;;;;;5070716;28;19942;-44
2021/10/08 01:44:25;;;;;;;;;;;;;;;;;;5071626;28;19920;-42
2021/10/08 01:46:50;;;;;;;;;;;;;;;;;;5071461;28;19925;-44
2021/10/08 01:49:15;;;;;;;;;;;;;;;19.84;nan;101114.19;5051905;28;19932;-43
2021/10/08 01:51:41;;;;;;;;;;;;;;;19.83;nan;101115.13;5076801;28;20012;-42
2021/10/08 01:54:06;;;;;;;;;;;;;;;19.84;nan;101126.78;5077871;28;19916;-43
2021/10/08 01:56:31;;;;;;;;;;;;;;;;;;5077692;28;19917;-42
2021/10/08 01:58:58;;;;;;;;;;;;;;;;;;5076181;28;19969;-43
2021/10/08 02:01:23;;;;;;;;;;;;;;;19.82;nan;101099.91;5069311;28;20366;-42
2021/10/08 02:03:48;;;;;;;;;;;;;;;;;;5071543;28;19916;-43
2021/10/08 02:06:13;;;;;;;;;;;;;;;;;;5076206;28;19969;-44
2021/10/08 02:08:39;;;;;;;;;;;;;;;19.80;nan;101109.09;5069439;28;19916;-42
2021/10/08 02:11:04;;;;;;;;;;;;;;;;;;5080010;28;20007;-43
2021/10/08 02:13:29;;;;;;;;;;;;;;;;;;5073547;28;19916;-43
2021/10/08 02:15:55;;;;;;;;;;;;;;;19.79;nan;101105.53;5065971;28;19962;-42
2021/10/08 02:18:20;;;;;;;;;;;;;;;19.78;nan;101103.81;5095590;28;19920;-43
2021/10/08 02:20:45;;;;;;;;;;;;;;;19.79;nan;101104.69;5093008;28;20046;-45
2021/10/08 02:23:11;;;;;;;;;;;;;;;19.78;nan;101101.13;5076252;28;19963;-44
2021/10/08 02:25:36;;;;;;;;;;;;;;;19.78;nan;101103.81;5075540;28;20525;-44
2021/10/08 02:28:01;;;;;;;;;;;;;;;;;;5088713;28;19926;-44
2021/10/08 02:30:27;;;;;;;;;;;;;;;19.76;nan;101100.34;5087709;28;20007;-42
2021/10/08 02:32:52;;;;;;;;;;;;;;;19.76;nan;101103.06;5088933;28;19912;-44
2021/10/08 02:35:17;;;;;;;;;;;;;;;19.77;nan;101110.19;5083146;28;20388;-43
2021/10/08 02:37:42;;;;;;;;;;;;;;;19.76;nan;101108.44;5089598;28;19947;-43
2021/10/08 02:40:08;;;;;;;;;;;;;;;;;;5072361;28;19917;-43
2021/10/08 02:42:33;;;;;;;;;;;;;;;19.77;nan;101102.09;5074737;28;19923;-47
2021/10/08 02:44:58;;;;;;;;;;;;;;;;;;5089009;28;19936;-43
2021/10/08 02:47:24;;;;;;;;;;;;;;;19.75;nan;101103.19;5074144;28;20270;-42
2021/10/08 02:49:49;;;;;;;;;;;;;;;;;;5074579;28;20305;-43
2021/10/08 02:52:14;;;;;;;;;;;;;;;;;;5073171;28;19969;-41
2021/10/08 02:54:39;;;;;;;;;;;;;;;;;;5074396;28;19962;-42
2021/10/08 02:57:04;;;;;;;;;;;;;;;;;;5074550;28;19924;-41
2021/10/08 02:59:30;;;;;;;;;;;;;;;;;;5073785;28;19969;-43
2021/10/08 03:01:55;;;;;;;;;;;;;;;19.73;nan;101097.91;5070653;28;19966;-41
2021/10/08 03:04:20;;;;;;;;;;;;;;;;;;5056374;28;19970;-41
2021/10/08 03:06:45;;;;;;;;;;;;;;;;;;5075816;28;19924;-41
2021/10/08 03:09:11;;;;;;;;;;;;;;;19.69;nan;101097.25;5071698;28;19923;-43
2021/10/08 03:11:36;;;;;;;;;;;;;;;19.70;nan;101100.81;5089070;28;20029;-44
2021/10/08 03:14:01;;;;;;;;;;;;;;;;;;5088636;28;19916;-43
2021/10/08 03:16:27;;;;;;;;;;;;;;;;;;5082572;28;20376;-41
2021/10/08 03:18:52;;;;;;;;;;;;;;;;;;5072545;28;19916;-43
2021/10/08 03:21:17;;;;;;;;;;;;;;;19.68;nan;101102.75;5090788;28;19923;-41
2021/10/08 03:23:42;;;;;;;;;;;;;;;;;;5074288;28;19924;-42
2021/10/08 03:26:08;;;;;;;;;;;;;;;19.69;nan;101104.50;5083827;28;19916;-44
2021/10/08 03:28:34;;;;;;;;;;;;;;;;;;5065431;28;19961;-43
2021/10/08 03:30:59;;;;;;;;;;;;;;;19.67;nan;101119.91;5055959;28;19917;-42
2021/10/08 03:33:25;;;;;;;;;;;;;;;;;;5078446;28;19916;-42
2021/10/08 03:35:50;;;;;;;;;;;;;;;19.66;nan;101128.97;5089024;28;19917;-43
2021/10/08 03:38:17;;;;;;;;;;;;;;;;;;5077654;28;19920;-44
2021/10/08 03:40:49;;;;;;;;;;;;;;;19.65;nan;101132.63;5080605;28;19917;-42
2021/10/08 03:43:15;;;;;;;;;;;;;;;19.64;nan;101131.78;5073625;28;19923;-43
2021/10/08 03:45:49;;;;;;;;;;;;;;;;;;5086933;28;19921;-45
2021/10/08 03:50:46;;;;;;;;;;;;;;;19.64;nan;101141.69;5089012;28;19916;-42
2021/10/08 03:53:12;;;;;;;;;;;;;;;;;;5086521;28;19924;-43
2021/10/08 03:55:37;;;;;;;;;;;;;;;;;;5075567;28;19916;-43
2021/10/08 03:58:02;;;;;;;;;;;;;;;;;;5076114;28;20378;-42
2021/10/08 04:00:27;;;;;;;;;;;;;;;19.61;nan;101141.88;5086119;28;19922;-42
2021/10/08 04:02:53;;;;;;;;;;;;;;;;;;5072811;28;20447;-43
2021/10/08 04:05:18;;;;;;;;;;;;;;;;;;5072772;28;19999;-43
2021/10/08 04:07:43;;;;;;;;;;;;;;;19.60;nan;101148.25;5042697;28;19971;-45
2021/10/08 04:10:08;;;;;;;;;;;;;;;19.61;nan;101149.97;5093423;28;19959;-43
2021/10/08 04:12:34;;;;;;;;;;;;;;;;;;5077250;28;19959;-42
2021/10/08 04:14:59;;;;;;;;;;;;;;;19.60;nan;101149.13;5077146;28;19956;-42
2021/10/08 04:17:24;;;;;;;;;;;;;;;;;;5062249;28;19920;-46
2021/10/08 04:19:49;;;;;;;;;;;;;;;19.58;nan;101151.06;5072909;28;19987;-44
2021/10/08 04:22:15;;;;;;;;;;;;;;;;;;5085458;28;20439;-42
2021/10/08 04:24:40;;;;;;;;;;;;;;;19.56;nan;101142.22;5062461;28;20383;-44
2021/10/08 04:27:05;;;;;;;;;;;;;;;19.55;nan;101150.44;5077977;28;19917;-42
2021/10/08 04:29:30;;;;;;;;;;;;;;;;;;5063545;28;20402;-43
2021/10/08 04:31:56;;;;;;;;;;;;;;;19.56;nan;101162.94;5092904;28;19912;-43
2021/10/08 04:34:21;;;;;;;;;;;;;;;19.55;nan;101161.22;5086278;28;20476;-42
2021/10/08 04:36:46;;;;;;;;;;;;;;;;;;5092251;28;19912;-43
2021/10/08 04:39:11;;;;;;;;;;;;;;;;;;5067845;28;19916;-43
2021/10/08 04:41:37;;;;;;;;;;;;;;;;;;5083013;28;20271;-43
2021/10/08 04:44:02;;;;;;;;;;;;;;;;;;5071807;28;19920;-41
2021/10/08 04:46:27;;;;;;;;;;;;;;;;;;5052551;28;19913;-42
2021/10/08 04:48:52;;;;;;;;;;;;;;;19.49;nan;101149.88;5076166;22;19997;-42
2021/10/08 04:51:18;;;;;;;;;;;;;;;19.49;nan;101149.88;5091500;28;20019;-43
2021/10/08 04:53:43;;;;;;;;;;;;;;;19.49;nan;101157.09;5092317;28;19951;-42
2021/10/08 04:56:08;;;;;;;;;;;;;;;19.48;nan;101156.25;5091813;28;20508;-42
2021/10/08 04:58:34;;;;;;;;;;;;;;;19.48;nan;101148.16;5072469;28;19912;-43
2021/10/08 05:00:59;;;;;;;;;;;;;;;;;;5086539;28;19916;-44
2021/10/08 05:03:24;;;;;;;;;;;;;;;;;;5074232;28;19912;-42
2021/10/08 05:05:51;;;;;;;;;;;;;;;19.46;nan;101162.72;5084974;28;20274;-44
2021/10/08 05:08:17;;;;;;;;;;;;;;;19.46;nan;101146.56;5074310;28;19924;-42
2021/10/08 05:10:43;;;;;;;;;;;;;;;19.44;nan;101146.66;5079883;28;19938;-45
2021/10/08 05:13:08;;;;;;;;;;;;;;;19.46;nan;101150.09;5092179;28;20006;-44
2021/10/08 05:15:34;;;;;;;;;;;;;;;19.45;nan;101139.41;5075351;28;19951;-42
2021/10/08 05:17:59;;;;;;;;;;;;;;;;;;5091558;28;19919;-42
2021/10/08 05:20:24;;;;;;;;;;;;;;;19.44;nan;101148.47;5077781;28;19916;-41
2021/10/08 05:22:50;;;;;;;;;;;;;;;19.44;nan;101148.47;5089567;28;19919;-42
2021/10/08 05:25:16;;;;;;;;;;;;;;;19.44;nan;101143.09;5063699;28;19981;-45
2021/10/08 05:27:41;;;;;;;;;;;;;;;19.43;nan;101141.38;5088784;28;19923;-42
2021/10/08 05:30:06;;;;;;;;;;;;;;;;;;5079232;28;20323;-40
2021/10/08 05:32:32;;;;;;;;;;;;;;;19.41;nan;101143.28;5084934;28;20442;-41
2021/10/08 05:34:57;;;;;;;;;;;;;;;19.40;nan;101139.75;5091324;28;19916;-41
2021/10/08 05:37:22;;;;;;;;;;;;;;;19.40;nan;101147.84;5092303;28;20370;-41
2021/10/08 05:39:48;;;;;;;;;;;;;;;19.40;nan;101142.44;5086790;28;19912;-42
2021/10/08 05:42:13;;;;;;;;;;;;;;;19.39;nan;101143.41;5081845;28;19917;-42
2021/10/08 05:44:39;;;;;;;;;;;;;;;19.38;nan;101138.97;5076080;28;19921;-42
2021/10/08 05:47:04;;;;;;;;;;;;;;;;;;5084876;28;20411;-43
2021/10/08 05:49:29;;;;;;;;;;;;;;;;;;5089637;28;19927;-41
2021/10/08 05:51:54;;;;;;;;;;;;;;;;;;5089443;28;20382;-40
2021/10/08 05:54:19;;;;;;;;;;;;;;;;;;5078506;28;19936;-42
2021/10/08 05:56:45;;;;;;;;;;;;;;;19.35;nan;101133.81;5059266;28;20379;-42
2021/10/08 05:59:10;;;;;;;;;;;;;;;;;;5079996;28;19923;-41
2021/10/08 06:01:35;;;;;;;;;;;;;;;19.36;nan;101140.94;5096845;28;19923;-42
2021/10/08 06:04:05;;;;;;;;;;;;;;;19.35;nan;101144.59;5092315;28;20042;-41
2021/10/08 06:06:30;;;;;;;;;;;;;;;;;;5083514;28;19998;-41
2021/10/08 06:08:56;;;;;;;;;;;;;;;19.33;nan;101146.53;5096552;28;20003;-40
2021/10/08 06:11:21;;;;;;;;;;;;;;;19.32;nan;101150.22;5087003;28;19943;-40
2021/10/08 06:13:46;;;;;;;;;;;;;;;19.32;nan;101150.22;5083938;28;19916;-40
2021/10/08 06:16:12;;;;;;;;;;;;;;;19.32;nan;101150.22;5077874;28;19913;-40
2021/10/08 06:18:37;;;;;;;;;;;;;;;19.31;nan;101153.88;5082627;28;19916;-40
2021/10/08 06:21:02;;;;;;;;;;;;;;;19.31;nan;101159.28;5088296;28;19951;-41
2021/10/08 06:23:28;;;;;;;;;;;;;;;;;;5078490;28;19916;-40
2021/10/08 06:25:53;;;;;;;;;;;;;;;19.29;nan;101154.94;5094775;28;19936;-40
2021/10/08 06:28:19;;;;;;;;;;;;;;;19.29;nan;101139.63;5099726;28;19912;-42
2021/10/08 06:30:44;;;;;;;;;;;;;;;;;;5102392;28;19927;-41
2021/10/08 06:33:09;;;;;;;;;;;;;;;;;;5073924;28;20330;-41
2021/10/08 06:35:34;;;;;;;;;;;;;;;19.29;nan;101144.16;5089543;28;19924;-42
2021/10/08 06:38:00;;;;;;;;;;;;;;;19.29;nan;101142.31;5097121;28;19919;-41
2021/10/08 06:40:25;;;;;;;;;;;;;;;19.30;nan;101156.66;5077474;28;19919;-44
2021/10/08 06:42:51;;;;;;;;;;;;;;;19.29;nan;101149.56;5089618;28;19967;-41
2021/10/08 06:45:16;;;;;;;;;;;;;;;19.26;nan;101150.63;5099764;28;19928;-44
2021/10/08 06:47:42;;;;;;;;;;;;;;;19.26;nan;101139.84;5097299;28;19923;-41
2021/10/08 06:50:07;;;;;;;;;;;;;;;19.24;nan;101139.97;5078663;28;19929;-42
2021/10/08 06:52:33;;;;;;;;;;;;;;;19.24;nan;101141.78;5084650;28;19948;-43
2021/10/08 06:54:58;;;;;;;;;;;;;;;19.22;nan;101130.25;5077713;28;19924;-43
2021/10/08 06:57:24;;;;;;;;;;;;;;;19.21;nan;101144.69;5089914;28;20004;-43
2021/10/08 06:59:49;;;;;;;;;;;;;;;;;;5086851;28;19916;-41
2021/10/08 07:02:14;;;;;;;;;;;;;;;;;;5059155;28;19916;-40
2021/10/08 07:04:39;;;;;;;;;;;;;;;19.20;nan;101145.69;5092950;28;19920;-40
2021/10/08 07:07:05;;;;;;;;;;;;;;;;;;5079091;28;20007;-43
2021/10/08 07:09:30;;;;;;;;;;;;;;;19.20;nan;101151.06;5082744;28;19912;-41
2021/10/08 07:11:55;;;;;;;;;;;;;;;;;;5093424;28;20378;-43
2021/10/08 07:14:20;;;;;;;;;;;;;;;19.19;nan;101147.50;5077310;28;20344;-41
2021/10/08 07:16:46;;;;;;;;;;;;;;;;;;5083968;28;19956;-41
2021/10/08 07:19:14;;;;;;;;;;;;;;;19.22;nan;101152.66;5083789;28;19920;-41
2021/10/08 07:21:42;;;;;;;;;;;;;;;19.25;nan;101132.72;5079904;28;20362;-41
2021/10/08 07:24:07;;;;;;;;;;;;;;;;;;5083820;28;19921;-40
2021/10/08 07:26:32;;;;;;;;;;;;;;;;;;5078214;28;20369;-40
2021/10/08 07:28:58;;;;;;;;;;;;;;;19.30;nan;101146.75;5079023;28;19920;-42
2021/10/08 07:31:23;;;;;;;;;;;;;;;;;;5080805;28;20289;-43
2021/10/08 07:33:48;;;;;;;;;;;;;;;;;;5089445;28;19942;-41
2021/10/08 07:36:14;;;;;;;;;;;;;;;19.26;nan;101155.16;5087908;28;19916;-41
2021/10/08 07:38:39;;;;;;;;;;;;;;;;;;5080808;28;20007;-42
2021/10/08 07:41:04;;;;;;;;;;;;;;;19.27;nan;101154.19;5086187;28;19999;-42
2021/10/08 07:43:30;;;;;;;;;;;;;;;;;;5089294;28;19916;-43
2021/10/08 07:45:55;;;;;;;;;;;;;;;19.27;nan;101165.84;5086710;28;19927;-44
2021/10/08 07:48:20;;;;;;;;;;;;;;;19.28;nan;101167.56;5075943;28;19936;-42
2021/10/08 07:50:46;;;;;;;;;;;;;;;19.29;nan;101176.50;5077387;28;19949;-44
2021/10/08 07:53:11;;;;;;;;;;;;;;;19.31;nan;101164.66;5082820;28;20397;-43
2021/10/08 07:55:36;;;;;;;;;;;;;;;19.32;nan;101163.69;5068727;28;19944;-42
2021/10/08 07:58:02;;;;;;;;;;;;;;;19.34;nan;101166.25;5078585;28;19916;-40
2021/10/08 08:00:28;;;;;;;;;;;;;;;19.34;nan;101180.59;5074029;28;20061;-41
2021/10/08 08:02:53;;;;;;;;;;;;;;;19.36;nan;101181.38;5091678;28;19912;-41
2021/10/08 08:05:18;;;;;;;;;;;;;;;19.39;nan;101164.97;5078825;28;19986;-43
2021/10/08 08:07:44;;;;;;;;;;;;;;;19.43;nan;101173.72;5076676;28;20835;-44
2021/10/08 08:10:09;;;;;;;;;;;;;;;19.45;nan;101167.22;5078807;28;19934;-40
2021/10/08 08:12:35;;;;;;;;;;;;;;;19.51;nan;101170.50;5090587;28;19923;-45
2021/10/08 08:15:01;;;;;;;;;;;;;;;19.53;nan;101168.53;5084438;28;20452;-41
2021/10/08 08:17:27;;;;;;;;;;;;;;;19.57;nan;101167.34;5072453;28;19948;-40
2021/10/08 08:19:52;;;;;;;;;;;;;;;19.60;nan;101156.34;5072450;28;20306;-42
2021/10/08 08:22:17;;;;;;;;;;;;;;;19.63;nan;101164.25;5072295;28;19913;-40
2021/10/08 08:24:43;;;;;;;;;;;;;;;;;;5054074;28;19916;-42
2021/10/08 08:27:08;;;;;;;;;;;;;;;19.70;nan;101165.56;5054497;28;19919;-42
2021/10/08 08:29:33;;;;;;;;;;;;;;;;;;5070788;28;19924;-40
2021/10/08 08:31:59;;;;;;;;;;;;;;;19.81;nan;101173.75;5071636;28;19970;-40
2021/10/08 08:34:26;;;;;;;;;;;;;;;20.13;nan;101170.53;5071676;28;19917;-43
2021/10/08 08:36:52;;;;;;;;;;;;;;;20.33;nan;101164.53;5074610;28;19916;-44
2021/10/08 08:39:19;;;;;;;;;;;;;;;;;;5088385;28;19916;-41
2021/10/08 08:41:44;;;;;;;;;;;;;;;;;;5077744;28;19940;-41
2021/10/08 08:44:09;;;;;;;;;;;;;;;;;;5072762;28;20021;-41
2021/10/08 08:46:35;;;;;;;;;;;;;;;20.97;nan;101166.09;5084794;28;20299;-40
2021/10/08 08:49:00;;;;;;;;;;;;;;;21.08;nan;101158.03;5074568;28;20040;-39
2021/10/08 08:51:25;;;;;;;;;;;;;;;;;;5062757;28;20412;-40
2021/10/08 08:53:51;;;;;;;;;;;;;;;;;;5057172;28;19916;-39
2021/10/08 08:56:16;;;;;;;;;;;;;;;21.33;nan;101163.31;5077385;28;19981;-38
2021/10/08 08:58:41;;;;;;;;;;;;;;;21.38;nan;101155.69;5091491;28;19916;-38
2021/10/08 09:01:07;;;;;;;;;;;;;;;21.44;nan;101173.25;5094716;28;19911;-40
2021/10/08 09:03:32;;;;;;;;;;;;;;;;;;5092870;28;19912;-39
2021/10/08 09:05:57;;;;;;;;;;;;;;;;;;5090353;28;20015;-40
2021/10/08 09:08:22;;;;;;;;;;;;;;;;;;5092174;28;19916;-39
2021/10/08 09:10:47;;;;;;;;;;;;;;;;;;5090608;28;19919;-45
2021/10/08 09:13:15;;;;;;;;;;;;;;;21.52;nan;101161.81;5071507;28;19912;-40
2021/10/08 09:15:45;;;;;;;;;;;;;;;21.42;nan;101159.88;5085738;28;19981;-39
2021/10/08 09:18:12;;;;;;;;;;;;;;;21.35;nan;101165.88;5090275;28;19916;-38
2021/10/08 09:20:37;;;;;;;;;;;;;;;;;;5091859;28;19961;-38
2021/10/08 09:23:03;;;;;;;;;;;;;;;21.24;nan;101161.25;5084180;28;20003;-39
2021/10/08 09:25:33;;;;;;;;;;;;;;;21.17;nan;101158.16;5080249;28;19942;-39
2021/10/08 09:28:01;;;;;;;;;;;;;;;;;;5072722;28;19923;-38
2021/10/08 09:30:26;;;;;;;;;;;;;;;;;;5075310;28;20313;-39
2021/10/08 09:32:53;;;;;;;;;;;;;;;21.02;nan;101177.41;5089851;28;19927;-38
2021/10/08 09:35:20;;;;;;;;;;;;;;;21.02;nan;101167.47;5073493;28;19973;-38
2021/10/08 09:37:46;;;;;;;;;;;;;;;;;;5091408;28;19942;-38
2021/10/08 09:40:11;;;;;;;;;;;;;;;;;;5071431;28;20337;-39
2021/10/08 09:42:39;;;;;;;;;;;;;;;20.91;nan;101172.84;5091594;28;20016;-39
2021/10/08 09:45:04;;;;;;;;;;;;;;;20.85;nan;101171.47;5086771;28;19924;-41
2021/10/08 09:47:30;;;;;;;;;;;;;;;20.83;nan;101172.56;5088705;28;20413;-39
2021/10/08 09:50:12;;;;;;;;;;;;;;;20.81;nan;101166.41;5080899;28;20394;-38
2021/10/08 09:52:37;;;;;;;;;;;;;;;;;;5051785;28;19967;-38
2021/10/08 09:55:07;;;;;;;;;;;;;;;20.84;nan;101175.16;5072441;28;20337;-40
2021/10/08 09:57:57;;;;;;;;;;;;;;;20.85;nan;101168.75;5073911;28;20287;-41
2021/10/08 10:00:39;;;;;;;;;;;;;;;20.87;nan;101161.41;5064476;28;19935;-40
2021/10/08 10:03:05;;;;;;;;;;;;;;;20.87;nan;101165.94;5070106;28;19919;-39
2021/10/08 10:05:30;;;;;;;;;;;;;;;20.87;nan;101168.63;5069923;28;19991;-39
2021/10/08 10:07:56;;;;;;;;;;;;;;;20.85;nan;101171.47;5054824;28;20442;-40
2021/10/08 10:10:22;;;;;;;;;;;;;;;20.84;nan;101164.34;5070323;28;19923;-40
2021/10/08 10:12:49;;;;;;;;;;;;;;;20.84;nan;101169.75;5070214;28;19916;-39
2021/10/08 10:15:15;;;;;;;;;;;;;;;20.84;nan;101175.16;5070947;28;19919;-38
2021/10/08 10:17:41;;;;;;;;;;;;;;;20.82;nan;101174.41;5076334;28;19916;-39
2021/10/08 10:20:06;;;;;;;;;;;;;;;;;;5088771;28;19912;-42
2021/10/08 10:22:31;;;;;;;;;;;;;;;;;;5069784;28;19949;-39
2021/10/08 10:24:57;;;;;;;;;;;;;;;20.81;nan;101169.97;5090877;28;19915;-41
2021/10/08 10:27:22;;;;;;;;;;;;;;;20.79;nan;101174.63;5079087;28;19920;-39
2021/10/08 10:29:48;;;;;;;;;;;;;;;;;;5070848;28;20003;-39
2021/10/08 10:32:13;;;;;;;;;;;;;;;;;;5083472;28;19947;-39
2021/10/08 10:34:39;;;;;;;;;;;;;;;20.77;nan;101173.91;5074132;28;19925;-39
2021/10/08 10:37:04;;;;;;;;;;;;;;;;;;5094822;28;19916;-39
2021/10/08 10:39:29;;;;;;;;;;;;;;;;;;5077693;28;19981;-39
2021/10/08 10:41:54;;;;;;;;;;;;;;;;;;5075831;28;19941;-40
2021/10/08 10:44:25;;;;;;;;;;;;;;;;;;5075494;28;19927;-40
2021/10/08 10:51:59;;;;;;;;;;;;;;;20.74;nan;101166.00;5074814;28;19966;-43
2021/10/08 10:54:24;;;;;;;;;;;;;;;;;;5074964;28;19920;-40
2021/10/08 10:56:49;;;;;;;;;;;;;;;;;;5083282;28;19919;-43
2021/10/08 10:59:24;;;;;;;;;;;;;;;20.71;nan;101160.84;5057955;28;19917;-41
2021/10/08 11:01:49;;;;;;;;;;;;;;;;;;5074295;28;19920;-40
2021/10/08 11:04:27;;;;;;;;;;;;;;;20.71;nan;101163.53;5074136;28;20393;-40
2021/10/08 11:07:25;;;;;;;;;;;;;;;20.70;nan;101161.81;5075405;28;19963;-40
2021/10/08 11:09:56;;;;;;;;;;;;;;;20.68;nan;101159.25;5031166;28;19917;-39
2021/10/08 11:12:21;;;;;;;;;;;;;;;;;;5031749;28;19917;-41
2021/10/08 11:14:47;;;;;;;;;;;;;;;;;;5031738;28;19924;-52
2021/10/08 11:17:41;;;;;;;;;;;;;;;20.67;nan;101152.09;5030139;28;19932;-43
2021/10/08 11:20:06;;;;;;;;;;;;;;;20.66;nan;101149.53;5002753;28;19917;-42
2021/10/08 11:22:45;;;;;;;;;;;;;;;20.66;nan;101153.09;5011835;28;20478;-42
2021/10/08 11:25:12;;;;;;;;;;;;;;;20.66;nan;101141.41;5011745;28;20016;-41
2021/10/08 11:27:38;;;;;;;;;;;;;;;20.67;nan;101137.72;5018691;28;20457;-40
2021/10/08 11:30:04;;;;;;;;;;;;;;;20.65;nan;101132.47;5059588;22;20390;-49
2021/10/08 11:32:29;;;;;;;;;;;;;;;;;;5052532;28;19982;-47
2021/10/08 11:34:56;;;;;;;;;;;;;;;20.71;nan;101135.66;5052008;28;19936;-41
2021/10/08 11:37:21;;;;;;;;;;;;;;;;;;5053480;28;20003;-43
2021/10/08 11:39:47;;;;;;;;;;;;;;;20.72;nan;101124.75;5039067;28;20014;-40
2021/10/08 11:42:15;;;;;;;;;;;;;;;;;;5053198;28;19920;-40
2021/10/08 11:44:56;;;;;;;;;;;;;;;20.69;nan;101116.88;5053147;28;20331;-40
2021/10/08 11:47:47;;;;;;;;;;;;;;;20.69;nan;101114.19;5032978;28;19928;-40
2021/10/08 11:52:54;;;;;;;;;;;;;;;20.68;nan;101105.22;5049388;28;19927;-43
2021/10/08 11:55:19;;;;;;;;;;;;;;;;;;5050763;28;19917;-42
2021/10/08 11:57:49;;;;;;;;;;;;;;;20.66;nan;101106.31;5052763;28;20405;-43
2021/10/08 12:00:14;;;;;;;;;;;;;;;;;;5052717;28;20011;-43
2021/10/08 12:02:39;;;;;;;;;;;;;;;;;;5053114;28;20007;-41
2021/10/08 12:05:06;;;;;;;;;;;;;;;20.63;nan;101099.28;5052785;28;19919;-42
2021/10/08 12:07:36;;;;;;;;;;;;;;;20.62;nan;101091.31;5044955;28;20014;-41
2021/10/08 12:10:01;;;;;;;;;;;;;;;;;;5045257;28;19929;-42
2021/10/08 12:12:26;;;;;;;;;;;;;;;;;;5052490;28;20037;-44
2021/10/08 12:14:51;;;;;;;;;;;;;;;;;;5034111;28;20477;-42
2021/10/08 12:17:17;;;;;;;;;;;;;;;;;;5047032;28;19920;-42
2021/10/08 12:19:42;;;;;;;;;;;;;;;;;;5032698;28;20366;-41
2021/10/08 12:22:19;;;;;;;;;;;;;;;20.62;nan;101061.59;5030163;28;19921;-42
2021/10/08 12:24:44;;;;;;;;;;;;;;;20.64;nan;101070.44;5052498;28;19967;-41
2021/10/08 12:27:10;;;;;;;;;;;;;;;20.62;nan;101056.19;5030414;28;19929;-41
2021/10/08 12:29:43;;;;;;;;;;;;;;;20.63;nan;101057.91;5032518;28;19913;-42
2021/10/08 12:32:13;;;;;;;;;;;;;;;20.64;nan;101048.81;5029827;28;19924;-43
2021/10/08 12:34:39;;;;;;;;;;;;;;;20.63;nan;101047.97;5052297;28;19917;-41
2021/10/08 12:37:05;;;;;;;;;;;;;;;20.64;nan;101030.81;5041043;28;19943;-44
2021/10/08 12:39:35;;;;;;;;;;;;;;;;;;5014458;28;19913;-45
2021/10/08 12:42:10;;;;;;;;;;;;;;;20.65;nan;101028.97;5046962;28;20107;-42
2021/10/08 12:44:36;;;;;;;;;;;;;;;;;;5046449;28;19924;-44
2021/10/08 12:47:12;;;;;;;;;;;;;;;20.65;nan;101029.81;5029727;28;19928;-44
2021/10/08 12:49:37;;;;;;;;;;;;;;;;;;5019995;28;20351;-42
2021/10/08 12:52:02;;;;;;;;;;;;;;;;;;5039911;28;19924;-42
2021/10/08 12:54:28;;;;;;;;;;;;;;;;;;5032411;28;19984;-42
2021/10/08 12:57:12;;;;;;;;;;;;;;;20.67;nan;101016.19;5046829;28;20350;-40
2021/10/08 12:59:49;;;;;;;;;;;;;;;20.71;nan;101011.41;5036435;28;19917;-43
2021/10/08 13:02:14;;;;;;;;;;;;;;;;;;5027387;28;20403;-41
2021/10/08 13:04:41;;;;;;;;;;;;;;;20.75;nan;101011.03;5050118;28;19916;-43
2021/10/08 13:07:14;;;;;;;;;;;;;;;20.76;nan;101014.59;5051072;28;19917;-40
2021/10/08 13:09:41;;;;;;;;;;;;;;;20.77;nan;101011.78;5027368;28;19924;-46
2021/10/08 13:12:06;;;;;;;;;;;;;;;20.80;nan;101005.31;5036732;28;19959;-44
2021/10/08 13:14:31;;;;;;;;;;;;;;;;;;5049420;28;19955;-43
2021/10/08 13:16:56;;;;;;;;;;;;;;;;;;5043149;28;20150;-44
2021/10/08 13:19:29;;;;;;;;;;;;;;;20.91;nan;100995.38;5019567;28;20299;-41
2021/10/08 13:21:55;;;;;;;;;;;;;;;20.92;nan;100988.13;5041158;28;20004;-41
2021/10/08 13:24:20;;;;;;;;;;;;;;;;;;5033499;28;20012;-41
2021/10/08 13:26:45;;;;;;;;;;;;;;;;;;5050778;28;19952;-41
2021/10/08 13:29:10;;;;;;;;;;;;;;;20.96;nan;100991.44;5043421;28;19917;-43
2021/10/08 13:31:36;;;;;;;;;;;;;;;20.99;nan;100974.97;5039858;28;19923;-43
2021/10/08 13:34:01;;;;;;;;;;;;;;;21.00;nan;100974.00;5043276;28;19939;-45
2021/10/08 13:36:26;;;;;;;;;;;;;;;21.02;nan;100978.28;5041305;28;20011;-45
2021/10/08 13:38:52;;;;;;;;;;;;;;;;;;5045321;28;19979;-46
2021/10/08 13:43:52;;;;;;;16.27;5.97;;;;;;;;;;6019612;22;20512;-38
2021/10/08 13:46:17;;;;;;;17.67;5.77;;;;;;;;;;5037183;28;20127;-40
2021/10/08 13:48:43;;;;;;;26.38;7.40;;;;;;;;;;5038827;28;20451;-45
2021/10/08 13:51:09;;;;;;;17.40;6.30;;;;;;;;;;5031152;28;20124;-45
2021/10/08 13:53:34;;;;;;;12.30;4.50;;;;;;;;;;5021864;28;20036;-43
2021/10/08 13:56:00;;;;;;;15.07;4.10;;;;;;;;;;5020191;28;20535;-44
2021/10/08 13:58:25;;;;;;;12.70;5.00;;;;;;;;;;5043199;28;20028;-45
2021/10/08 14:00:52;;;;;;;15.87;4.67;;;;;;;;;;5036965;28;20709;-42
2021/10/08 14:03:27;;;;;;;15.30;3.95;;;;;;;;;;5014687;28;20117;-43
2021/10/08 14:11:11;;;;;;;11.02;4.25;;;;;;;;;;5032875;28;20072;-43
2021/10/08 14:13:37;;;;;;;11.50;3.67;;;;;;;;;;5008446;28;20737;-43
2021/10/08 14:16:03;;;;;;;9.80;3.97;;;;;;;;;;5011918;28;20025;-43
2021/10/08 14:18:28;;;;;;;11.23;3.23;;;;;;;;;;5034634;28;20037;-44
2021/10/08 14:20:54;;;;;;;7.63;3.33;;;;;;;;;;5019013;28;20116;-43
2021/10/08 14:23:19;;;;;;;14.97;3.70;;;;;;;;;;5014838;28;20108;-43
2021/10/08 14:25:44;;;;;;;5.33;2.90;;;;;;;;;;5014827;28;20057;-45